sensor_id;sensor_type;location;lat;lon;timestamp;temperature;humidity
46340;DHT22;47273;49.274;8.708;2022-10-17T03:31:12;15.10;99.90
46340;DHT22;47273;49.274;8.708;2022-10-17T03:33:38;15.10;99.90
46340;DHT22;47273;49.274;8.708;2022-10-17T03:36:06;15.10;99.90
46340;DHT22;47273;49.274;8.708;2022-10-17T03:38:33;15.10;99.90
46340;DHT22;47273;49.274;8.708;2022-10-17T03:40:58;15.00;99.90
46340;DHT22;47273;49.274;8.708;2022-10-17T03:43:24;15.00;99.90
46340;DHT22;47273;49.274;8.708;2022-10-17T03:45:50;15.00;99.90
46340;DHT22;47273;49.274;8.708;2022-10-17T03:48:15;15.10;99.90
46340;DHT22;47273;49.274;8.708;2022-10-17T03:50:41;15.00;99.90
46340;DHT22;47273;49.274;8.708;2022-10-17T03:53:07;15.00;99.90
46340;DHT22;47273;49.274;8.708;2022-10-17T03:55:32;15.00;99.90
46340;DHT22;47273;49.274;8.708;2022-10-17T03:57:58;15.00;99.90
46340;DHT22;47273;49.274;8.708;2022-10-17T04:00:24;15.00;99.90
46340;DHT22;47273;49.274;8.708;2022-10-17T04:02:49;15.00;99.90
46340;DHT22;47273;49.274;8.708;2022-10-17T04:05:15;15.00;99.90
46340;DHT22;47273;49.274;8.708;2022-10-17T04:07:41;15.00;99.90
46340;DHT22;47273;49.274;8.708;2022-10-17T04:10:07;15.00;99.90
46340;DHT22;47273;49.274;8.708;2022-10-17T04:12:35;15.00;99.90
46340;DHT22;47273;49.274;8.708;2022-10-17T04:15:01;15.00;99.90
46340;DHT22;47273;49.274;8.708;2022-10-17T04:17:29;15.00;99.90
46340;DHT22;47273;49.274;8.708;2022-10-17T04:19:58;15.00;99.90
46340;DHT22;47273;49.274;8.708;2022-10-17T04:22:24;15.00;99.90
46340;DHT22;47273;49.274;8.708;2022-10-17T04:24:49;15.00;99.90
46340;DHT22;47273;49.274;8.708;2022-10-17T04:27:15;15.00;99.90
46340;DHT22;47273;49.274;8.708;2022-10-17T04:29:41;15.00;99.90
46340;DHT22;47273;49.274;8.708;2022-10-17T04:32:08;15.00;99.90
46340;DHT22;47273;49.274;8.708;2022-10-17T04:34:34;15.00;99.90
46340;DHT22;47273;49.274;8.708;2022-10-17T04:37:00;15.00;99.90
46340;DHT22;47273;49.274;8.708;2022-10-17T04:39:26;15.00;99.90
46340;DHT22;47273;49.274;8.708;2022-10-17T04:41:51;15.00;99.90
46340;DHT22;47273;49.274;8.708;2022-10-17T04:44:17;15.00;99.90
46340;DHT22;47273;49.274;8.708;2022-10-17T04:46:45;15.00;99.90
46340;DHT22;47273;49.274;8.708;2022-10-17T04:49:13;14.90;99.90
46340;DHT22;47273;49.274;8.708;2022-10-17T04:51:39;14.90;99.90
46340;DHT22;47273;49.274;8.708;2022-10-17T04:54:07;14.90;99.90
46340;DHT22;47273;49.274;8.708;2022-10-17T04:56:33;14.80;99.90
46340;DHT22;47273;49.274;8.708;2022-10-17T04:58:59;14.80;99.90
46340;DHT22;47273;49.274;8.708;2022-10-17T05:01:25;14.70;99.90
46340;DHT22;47273;49.274;8.708;2022-10-17T05:03:52;14.80;99.90
46340;DHT22;47273;49.274;8.708;2022-10-17T05:06:20;14.80;99.90
46340;DHT22;47273;49.274;8.708;2022-10-17T05:08:47;14.80;99.90
46340;DHT22;47273;49.274;8.708;2022-10-17T05:11:16;14.80;99.90
46340;DHT22;47273;49.274;8.708;2022-10-17T05:13:42;14.80;99.90
46340;DHT22;47273;49.274;8.708;2022-10-17T05:16:08;14.80;99.90
46340;DHT22;47273;49.274;8.708;2022-10-17T05:18:34;14.70;99.90
46340;DHT22;47273;49.274;8.708;2022-10-17T05:21:01;14.70;99.90
46340;DHT22;47273;49.274;8.708;2022-10-17T05:23:28;14.70;99.90
46340;DHT22;47273;49.274;8.708;2022-10-17T05:25:55;14.70;99.90
46340;DHT22;47273;49.274;8.708;2022-10-17T05:28:21;14.70;99.90
46340;DHT22;47273;49.274;8.708;2022-10-17T05:30:48;14.70;99.90
46340;DHT22;47273;49.274;8.708;2022-10-17T05:33:13;14.70;99.90
46340;DHT22;47273;49.274;8.708;2022-10-17T05:35:39;14.70;99.90
46340;DHT22;47273;49.274;8.708;2022-10-17T05:38:05;14.70;99.90
46340;DHT22;47273;49.274;8.708;2022-10-17T05:40:31;14.70;99.90
46340;DHT22;47273;49.274;8.708;2022-10-17T05:42:57;14.70;99.90
46340;DHT22;47273;49.274;8.708;2022-10-17T05:45:23;14.70;99.90
46340;DHT22;47273;49.274;8.708;2022-10-17T05:47:49;14.70;99.90
46340;DHT22;47273;49.274;8.708;2022-10-17T05:50:14;14.60;99.90
46340;DHT22;47273;49.274;8.708;2022-10-17T05:52:40;14.70;99.90
46340;DHT22;47273;49.274;8.708;2022-10-17T05:55:06;14.60;99.90
46340;DHT22;47273;49.274;8.708;2022-10-17T05:57:32;14.70;99.90
46340;DHT22;47273;49.274;8.708;2022-10-17T06:03:32;14.70;99.90
46340;DHT22;47273;49.274;8.708;2022-10-17T06:06:55;14.70;99.90
46340;DHT22;47273;49.274;8.708;2022-10-17T06:09:57;14.70;99.90
46340;DHT22;47273;49.274;8.708;2022-10-17T06:22:55;14.60;99.90
46340;DHT22;47273;49.274;8.708;2022-10-17T06:35:28;14.70;99.90
46340;DHT22;47273;49.274;8.708;2022-10-17T06:44:56;14.70;99.90
46340;DHT22;47273;49.274;8.708;2022-10-17T06:48:00;14.70;99.90
46340;DHT22;47273;49.274;8.708;2022-10-17T06:50:51;14.70;99.90
46340;DHT22;47273;49.274;8.708;2022-10-17T06:53:42;14.70;99.90
46340;DHT22;47273;49.274;8.708;2022-10-17T06:56:20;14.80;99.90
46340;DHT22;47273;49.274;8.708;2022-10-17T07:02:38;14.80;99.90
46340;DHT22;47273;49.274;8.708;2022-10-17T07:22:20;15.00;99.90
46340;DHT22;47273;49.274;8.708;2022-10-17T07:35:23;15.30;99.90
46340;DHT22;47273;49.274;8.708;2022-10-17T07:48:57;15.50;99.90
46340;DHT22;47273;49.274;8.708;2022-10-17T08:09:02;16.10;99.90
46340;DHT22;47273;49.274;8.708;2022-10-17T08:14:47;16.30;99.90
46340;DHT22;47273;49.274;8.708;2022-10-17T08:17:17;16.40;99.90
46340;DHT22;47273;49.274;8.708;2022-10-17T08:19:43;16.50;99.90
46340;DHT22;47273;49.274;8.708;2022-10-17T08:22:08;16.60;99.90
46340;DHT22;47273;49.274;8.708;2022-10-17T08:24:34;16.60;99.90
46340;DHT22;47273;49.274;8.708;2022-10-17T08:27:00;16.80;99.90
46340;DHT22;47273;49.274;8.708;2022-10-17T08:29:26;16.90;99.90
46340;DHT22;47273;49.274;8.708;2022-10-17T08:31:52;17.00;99.90
46340;DHT22;47273;49.274;8.708;2022-10-17T08:34:18;17.00;99.90
46340;DHT22;47273;49.274;8.708;2022-10-17T08:36:43;17.10;99.90
46340;DHT22;47273;49.274;8.708;2022-10-17T08:39:09;17.10;99.90
46340;DHT22;47273;49.274;8.708;2022-10-17T08:47:03;17.50;99.90
46340;DHT22;47273;49.274;8.708;2022-10-17T08:55:02;17.70;99.90
46340;DHT22;47273;49.274;8.708;2022-10-17T08:57:28;17.80;99.90
46340;DHT22;47273;49.274;8.708;2022-10-17T08:59:57;17.90;99.90
46340;DHT22;47273;49.274;8.708;2022-10-17T09:02:45;18.00;99.90
46340;DHT22;47273;49.274;8.708;2022-10-17T09:05:40;18.10;99.90
46340;DHT22;47273;49.274;8.708;2022-10-17T09:08:27;18.20;99.90
46340;DHT22;47273;49.274;8.708;2022-10-17T09:19:33;18.60;99.90
46340;DHT22;47273;49.274;8.708;2022-10-17T09:24:58;18.80;99.90
46340;DHT22;47273;49.274;8.708;2022-10-17T09:27:33;18.80;99.90
46340;DHT22;47273;49.274;8.708;2022-10-17T09:33:27;19.00;99.90
46340;DHT22;47273;49.274;8.708;2022-10-17T09:35:54;19.10;99.90
46340;DHT22;47273;49.274;8.708;2022-10-17T09:38:27;19.30;99.90
46340;DHT22;47273;49.274;8.708;2022-10-17T09:40:59;19.40;99.90
46340;DHT22;47273;49.274;8.708;2022-10-17T09:43:26;19.50;99.90
46340;DHT22;47273;49.274;8.708;2022-10-17T09:48:57;19.70;99.90
46340;DHT22;47273;49.274;8.708;2022-10-17T09:51:24;19.80;99.90
46340;DHT22;47273;49.274;8.708;2022-10-17T09:54:02;19.90;99.90
46340;DHT22;47273;49.274;8.708;2022-10-17T10:03:29;20.20;99.90
46340;DHT22;47273;49.274;8.708;2022-10-17T10:06:16;20.30;99.90
46340;DHT22;47273;49.274;8.708;2022-10-17T10:08:58;20.30;99.90
46340;DHT22;47273;49.274;8.708;2022-10-17T10:14:35;20.50;99.90
46340;DHT22;47273;49.274;8.708;2022-10-17T10:17:03;20.50;99.90
46340;DHT22;47273;49.274;8.708;2022-10-17T10:19:32;20.60;99.90
46340;DHT22;47273;49.274;8.708;2022-10-17T10:22:16;20.70;99.90
46340;DHT22;47273;49.274;8.708;2022-10-17T10:24:42;20.90;99.90
46340;DHT22;47273;49.274;8.708;2022-10-17T10:27:22;21.00;99.90
46340;DHT22;47273;49.274;8.708;2022-10-17T10:29:50;21.10;99.90
46340;DHT22;47273;49.274;8.708;2022-10-17T10:32:26;21.20;99.90
46340;DHT22;47273;49.274;8.708;2022-10-17T10:35:05;21.40;99.90
46340;DHT22;47273;49.274;8.708;2022-10-17T10:37:54;21.50;99.90
46340;DHT22;47273;49.274;8.708;2022-10-17T10:40:51;21.60;99.90
46340;DHT22;47273;49.274;8.708;2022-10-17T10:43:32;21.70;99.90
46340;DHT22;47273;49.274;8.708;2022-10-17T10:46:01;21.90;99.90
46340;DHT22;47273;49.274;8.708;2022-10-17T10:48:33;22.10;99.90
46340;DHT22;47273;49.274;8.708;2022-10-17T10:51:11;22.00;99.90
46340;DHT22;47273;49.274;8.708;2022-10-17T10:56:45;22.40;99.90
46340;DHT22;47273;49.274;8.708;2022-10-17T10:59:16;22.60;99.90
46340;DHT22;47273;49.274;8.708;2022-10-17T11:01:57;22.80;99.90
46340;DHT22;47273;49.274;8.708;2022-10-17T11:07:45;23.30;99.90
46340;DHT22;47273;49.274;8.708;2022-10-17T11:10:29;23.50;99.70
46340;DHT22;47273;49.274;8.708;2022-10-17T11:13:12;23.50;97.70
46340;DHT22;47273;49.274;8.708;2022-10-17T11:21:17;23.70;97.80
46340;DHT22;47273;49.274;8.708;2022-10-17T11:24:05;23.90;95.50
46340;DHT22;47273;49.274;8.708;2022-10-17T11:26:39;23.90;94.80
46340;DHT22;47273;49.274;8.708;2022-10-17T11:29:08;23.90;94.60
46340;DHT22;47273;49.274;8.708;2022-10-17T11:31:44;24.10;95.20
46340;DHT22;47273;49.274;8.708;2022-10-17T11:34:24;24.30;95.40
46340;DHT22;47273;49.274;8.708;2022-10-17T11:36:58;24.40;96.90
46340;DHT22;47273;49.274;8.708;2022-10-17T11:39:59;24.60;95.90
46340;DHT22;47273;49.274;8.708;2022-10-17T11:42:33;24.70;95.20
46340;DHT22;47273;49.274;8.708;2022-10-17T11:45:09;25.10;94.70
46340;DHT22;47273;49.274;8.708;2022-10-17T11:47:50;25.40;93.70
46340;DHT22;47273;49.274;8.708;2022-10-17T11:50:36;25.20;90.90
46340;DHT22;47273;49.274;8.708;2022-10-17T11:55:36;25.00;91.70
46340;DHT22;47273;49.274;8.708;2022-10-17T12:06:16;25.70;88.50
46340;DHT22;47273;49.274;8.708;2022-10-17T12:11:33;26.10;87.60
46340;DHT22;47273;49.274;8.708;2022-10-17T12:19:45;25.90;90.30
46340;DHT22;47273;49.274;8.708;2022-10-17T12:25:15;26.20;87.00
46340;DHT22;47273;49.274;8.708;2022-10-17T12:27:42;26.00;86.30
46340;DHT22;47273;49.274;8.708;2022-10-17T12:30:22;25.80;83.20
46340;DHT22;47273;49.274;8.708;2022-10-17T12:33:00;25.50;84.10
46340;DHT22;47273;49.274;8.708;2022-10-17T12:35:29;25.50;85.60
46340;DHT22;47273;49.274;8.708;2022-10-17T12:38:07;25.50;84.60
46340;DHT22;47273;49.274;8.708;2022-10-17T12:51:06;25.70;82.70
46340;DHT22;47273;49.274;8.708;2022-10-17T12:58:57;25.80;85.60
46340;DHT22;47273;49.274;8.708;2022-10-17T13:01:31;26.10;83.90
46340;DHT22;47273;49.274;8.708;2022-10-17T13:03:58;26.10;83.80
46340;DHT22;47273;49.274;8.708;2022-10-17T13:06:31;26.00;84.00
46340;DHT22;47273;49.274;8.708;2022-10-17T13:09:37;25.70;83.00
46340;DHT22;47273;49.274;8.708;2022-10-17T13:12:05;25.60;83.10
46340;DHT22;47273;49.274;8.708;2022-10-17T13:14:38;25.60;84.60
46340;DHT22;47273;49.274;8.708;2022-10-17T13:17:11;25.60;81.20
46340;DHT22;47273;49.274;8.708;2022-10-17T13:19:45;25.60;83.10
46340;DHT22;47273;49.274;8.708;2022-10-17T13:22:31;25.70;83.50
46340;DHT22;47273;49.274;8.708;2022-10-17T13:27:34;25.60;80.90
46340;DHT22;47273;49.274;8.708;2022-10-17T13:30:26;25.50;79.40
46340;DHT22;47273;49.274;8.708;2022-10-17T13:32:52;25.60;80.00
46340;DHT22;47273;49.274;8.708;2022-10-17T13:35:34;25.70;82.20
46340;DHT22;47273;49.274;8.708;2022-10-17T13:38:05;25.70;83.00
46340;DHT22;47273;49.274;8.708;2022-10-17T13:40:43;25.70;83.40
46340;DHT22;47273;49.274;8.708;2022-10-17T13:43:18;25.80;81.70
46340;DHT22;47273;49.274;8.708;2022-10-17T13:45:54;25.80;81.70
46340;DHT22;47273;49.274;8.708;2022-10-17T13:48:26;25.90;82.50
46340;DHT22;47273;49.274;8.708;2022-10-17T13:50:55;25.90;81.90
46340;DHT22;47273;49.274;8.708;2022-10-17T13:53:39;25.80;79.60
46340;DHT22;47273;49.274;8.708;2022-10-17T13:56:23;25.70;82.20
46340;DHT22;47273;49.274;8.708;2022-10-17T13:58:54;25.60;79.90
46340;DHT22;47273;49.274;8.708;2022-10-17T14:01:23;25.40;80.70
46340;DHT22;47273;49.274;8.708;2022-10-17T14:03:49;25.20;80.80
46340;DHT22;47273;49.274;8.708;2022-10-17T14:06:21;25.20;83.00
46340;DHT22;47273;49.274;8.708;2022-10-17T14:09:03;25.10;83.60
46340;DHT22;47273;49.274;8.708;2022-10-17T14:11:39;25.10;83.80
46340;DHT22;47273;49.274;8.708;2022-10-17T14:14:17;25.00;84.00
46340;DHT22;47273;49.274;8.708;2022-10-17T14:16:43;25.00;84.70
46340;DHT22;47273;49.274;8.708;2022-10-17T14:22:17;24.80;84.80
46340;DHT22;47273;49.274;8.708;2022-10-17T14:24:44;24.80;85.80
46340;DHT22;47273;49.274;8.708;2022-10-17T14:27:32;24.70;85.40
46340;DHT22;47273;49.274;8.708;2022-10-17T14:32:55;24.50;85.90
46340;DHT22;47273;49.274;8.708;2022-10-17T14:35:21;24.40;84.50
46340;DHT22;47273;49.274;8.708;2022-10-17T14:37:50;24.30;86.30
46340;DHT22;47273;49.274;8.708;2022-10-17T14:40:21;24.30;86.40
46340;DHT22;47273;49.274;8.708;2022-10-17T14:42:52;24.20;86.40
46340;DHT22;47273;49.274;8.708;2022-10-17T14:45:27;24.20;86.20
46340;DHT22;47273;49.274;8.708;2022-10-17T14:47:59;24.10;86.50
46340;DHT22;47273;49.274;8.708;2022-10-17T14:50:27;24.00;87.70
46340;DHT22;47273;49.274;8.708;2022-10-17T14:55:38;23.90;87.40
46340;DHT22;47273;49.274;8.708;2022-10-17T14:58:21;23.80;86.80
46340;DHT22;47273;49.274;8.708;2022-10-17T15:00:48;23.70;88.90
46340;DHT22;47273;49.274;8.708;2022-10-17T15:03:14;23.70;87.80
46340;DHT22;47273;49.274;8.708;2022-10-17T15:05:40;23.70;88.90
46340;DHT22;47273;49.274;8.708;2022-10-17T15:08:14;23.60;89.10
46340;DHT22;47273;49.274;8.708;2022-10-17T15:10:42;23.60;89.10
46340;DHT22;47273;49.274;8.708;2022-10-17T15:13:09;23.60;89.20
46340;DHT22;47273;49.274;8.708;2022-10-17T15:15:36;23.60;89.80
46340;DHT22;47273;49.274;8.708;2022-10-17T15:18:03;23.60;90.10
46340;DHT22;47273;49.274;8.708;2022-10-17T15:20:29;23.60;90.20
46340;DHT22;47273;49.274;8.708;2022-10-17T15:22:57;23.60;90.30
46340;DHT22;47273;49.274;8.708;2022-10-17T15:25:24;23.70;90.30
46340;DHT22;47273;49.274;8.708;2022-10-17T15:27:50;23.70;90.20
46340;DHT22;47273;49.274;8.708;2022-10-17T15:30:25;23.70;90.60
46340;DHT22;47273;49.274;8.708;2022-10-17T15:32:52;23.60;91.00
46340;DHT22;47273;49.274;8.708;2022-10-17T15:35:19;23.60;90.90
46340;DHT22;47273;49.274;8.708;2022-10-17T15:37:45;23.50;91.00
46340;DHT22;47273;49.274;8.708;2022-10-17T15:40:20;23.50;91.10
46340;DHT22;47273;49.274;8.708;2022-10-17T15:42:46;23.40;91.50
46340;DHT22;47273;49.274;8.708;2022-10-17T15:45:15;23.30;91.70
46340;DHT22;47273;49.274;8.708;2022-10-17T15:47:42;23.30;92.10
46340;DHT22;47273;49.274;8.708;2022-10-17T15:50:16;23.20;92.30
46340;DHT22;47273;49.274;8.708;2022-10-17T15:52:42;23.20;92.60
46340;DHT22;47273;49.274;8.708;2022-10-17T15:55:08;23.10;92.80
46340;DHT22;47273;49.274;8.708;2022-10-17T15:57:40;23.10;93.10
46340;DHT22;47273;49.274;8.708;2022-10-17T16:00:14;23.00;93.20
46340;DHT22;47273;49.274;8.708;2022-10-17T16:02:41;22.90;93.30
46340;DHT22;47273;49.274;8.708;2022-10-17T16:05:25;22.90;93.80
46340;DHT22;47273;49.274;8.708;2022-10-17T16:07:55;22.80;94.10
46340;DHT22;47273;49.274;8.708;2022-10-17T16:10:23;22.70;94.00
46340;DHT22;47273;49.274;8.708;2022-10-17T16:12:50;22.70;94.10
46340;DHT22;47273;49.274;8.708;2022-10-17T16:15:20;22.60;94.20
46340;DHT22;47273;49.274;8.708;2022-10-17T16:17:51;22.50;94.30
46340;DHT22;47273;49.274;8.708;2022-10-17T16:20:18;22.50;94.50
46340;DHT22;47273;49.274;8.708;2022-10-17T16:22:44;22.50;95.30
46340;DHT22;47273;49.274;8.708;2022-10-17T16:27:48;22.30;97.10
46340;DHT22;47273;49.274;8.708;2022-10-17T16:30:16;22.20;97.00
46340;DHT22;47273;49.274;8.708;2022-10-17T16:32:43;22.20;97.40
46340;DHT22;47273;49.274;8.708;2022-10-17T16:35:15;22.10;97.70
46340;DHT22;47273;49.274;8.708;2022-10-17T16:37:41;22.10;97.70
46340;DHT22;47273;49.274;8.708;2022-10-17T16:40:10;22.10;98.00
46340;DHT22;47273;49.274;8.708;2022-10-17T16:42:36;22.00;97.80
46340;DHT22;47273;49.274;8.708;2022-10-17T16:45:04;21.90;98.00
46340;DHT22;47273;49.274;8.708;2022-10-17T16:47:30;21.80;98.30
46340;DHT22;47273;49.274;8.708;2022-10-17T16:49:56;21.70;98.40
46340;DHT22;47273;49.274;8.708;2022-10-17T16:52:21;21.70;98.60
46340;DHT22;47273;49.274;8.708;2022-10-17T16:54:47;21.60;99.00
46340;DHT22;47273;49.274;8.708;2022-10-17T16:57:13;21.50;99.50
46340;DHT22;47273;49.274;8.708;2022-10-17T16:59:39;21.40;99.70
46340;DHT22;47273;49.274;8.708;2022-10-17T17:02:05;21.40;99.90
46340;DHT22;47273;49.274;8.708;2022-10-17T17:04:31;21.30;99.90
46340;DHT22;47273;49.274;8.708;2022-10-17T17:06:57;21.20;99.90
46340;DHT22;47273;49.274;8.708;2022-10-17T17:09:23;21.10;99.90
46340;DHT22;47273;49.274;8.708;2022-10-17T17:11:49;21.00;99.90
46340;DHT22;47273;49.274;8.708;2022-10-17T17:14:14;20.90;99.90
46340;DHT22;47273;49.274;8.708;2022-10-17T17:16:43;20.90;99.90
46340;DHT22;47273;49.274;8.708;2022-10-17T17:19:13;20.80;99.90
46340;DHT22;47273;49.274;8.708;2022-10-17T17:21:42;20.80;99.90
46340;DHT22;47273;49.274;8.708;2022-10-17T17:24:14;20.80;99.90
46340;DHT22;47273;49.274;8.708;2022-10-17T17:26:41;20.70;99.90
46340;DHT22;47273;49.274;8.708;2022-10-17T17:29:08;20.60;99.90
46340;DHT22;47273;49.274;8.708;2022-10-17T17:31:35;20.50;99.90
46340;DHT22;47273;49.274;8.708;2022-10-17T17:34:03;20.40;99.90
46340;DHT22;47273;49.274;8.708;2022-10-17T17:36:33;20.40;99.90
46340;DHT22;47273;49.274;8.708;2022-10-17T17:39:01;20.30;99.90
46340;DHT22;47273;49.274;8.708;2022-10-17T17:41:28;20.20;99.90
46340;DHT22;47273;49.274;8.708;2022-10-17T17:43:55;20.20;99.90
46340;DHT22;47273;49.274;8.708;2022-10-17T17:46:24;20.10;99.90
46340;DHT22;47273;49.274;8.708;2022-10-17T17:48:51;20.10;99.90
46340;DHT22;47273;49.274;8.708;2022-10-17T17:51:22;20.00;99.90
46340;DHT22;47273;49.274;8.708;2022-10-17T17:53:48;20.00;99.90
46340;DHT22;47273;49.274;8.708;2022-10-17T17:56:17;19.90;99.90
46340;DHT22;47273;49.274;8.708;2022-10-17T17:58:44;19.80;99.90
46340;DHT22;47273;49.274;8.708;2022-10-17T18:01:22;19.80;99.90
46340;DHT22;47273;49.274;8.708;2022-10-17T18:03:53;19.70;99.90
46340;DHT22;47273;49.274;8.708;2022-10-17T18:06:24;19.70;99.90
46340;DHT22;47273;49.274;8.708;2022-10-17T18:09:03;19.60;99.90
46340;DHT22;47273;49.274;8.708;2022-10-17T18:11:30;19.60;99.90
46340;DHT22;47273;49.274;8.708;2022-10-17T18:14:00;19.60;99.90
46340;DHT22;47273;49.274;8.708;2022-10-17T18:16:27;19.50;99.90
46340;DHT22;47273;49.274;8.708;2022-10-17T18:18:53;19.40;99.90
46340;DHT22;47273;49.274;8.708;2022-10-17T18:21:19;19.40;99.90
46340;DHT22;47273;49.274;8.708;2022-10-17T18:23:46;19.40;99.90
46340;DHT22;47273;49.274;8.708;2022-10-17T18:26:13;19.40;99.90
46340;DHT22;47273;49.274;8.708;2022-10-17T18:28:41;19.40;99.90
46340;DHT22;47273;49.274;8.708;2022-10-17T18:31:16;19.30;99.90
46340;DHT22;47273;49.274;8.708;2022-10-17T18:33:44;19.30;99.90
46340;DHT22;47273;49.274;8.708;2022-10-17T18:36:14;19.20;99.90
46340;DHT22;47273;49.274;8.708;2022-10-17T18:38:41;19.20;99.90
46340;DHT22;47273;49.274;8.708;2022-10-17T18:41:18;19.20;99.90
46340;DHT22;47273;49.274;8.708;2022-10-17T18:43:46;19.10;99.90
46340;DHT22;47273;49.274;8.708;2022-10-17T18:46:21;19.10;99.90
46340;DHT22;47273;49.274;8.708;2022-10-17T18:48:53;19.10;99.90
46340;DHT22;47273;49.274;8.708;2022-10-17T18:51:22;19.00;99.90
46340;DHT22;47273;49.274;8.708;2022-10-17T18:53:51;19.00;99.90
46340;DHT22;47273;49.274;8.708;2022-10-17T18:56:18;19.00;99.90
46340;DHT22;47273;49.274;8.708;2022-10-17T18:58:44;19.00;99.90
46340;DHT22;47273;49.274;8.708;2022-10-17T19:01:16;19.00;99.90
46340;DHT22;47273;49.274;8.708;2022-10-17T19:03:43;19.00;99.90
46340;DHT22;47273;49.274;8.708;2022-10-17T19:06:11;19.00;99.90
46340;DHT22;47273;49.274;8.708;2022-10-17T19:11:34;19.00;99.90
46340;DHT22;47273;49.274;8.708;2022-10-17T19:14:02;18.90;99.90
46340;DHT22;47273;49.274;8.708;2022-10-17T19:16:36;18.90;99.90
46340;DHT22;47273;49.274;8.708;2022-10-17T19:19:11;18.90;99.90
46340;DHT22;47273;49.274;8.708;2022-10-17T19:21:41;18.90;99.90
46340;DHT22;47273;49.274;8.708;2022-10-17T19:24:20;18.90;99.90
46340;DHT22;47273;49.274;8.708;2022-10-17T19:26:51;18.80;99.90
46340;DHT22;47273;49.274;8.708;2022-10-17T19:29:22;18.80;99.90
46340;DHT22;47273;49.274;8.708;2022-10-17T19:31:59;18.70;99.90
46340;DHT22;47273;49.274;8.708;2022-10-17T19:34:46;18.70;99.90
46340;DHT22;47273;49.274;8.708;2022-10-17T19:37:13;18.70;99.90
46340;DHT22;47273;49.274;8.708;2022-10-17T19:39:43;18.80;99.90
46340;DHT22;47273;49.274;8.708;2022-10-17T19:42:11;18.80;99.90
46340;DHT22;47273;49.274;8.708;2022-10-17T19:44:37;18.80;99.90
46340;DHT22;47273;49.274;8.708;2022-10-17T19:47:03;18.70;99.90
46340;DHT22;47273;49.274;8.708;2022-10-17T19:49:32;18.70;99.90
46340;DHT22;47273;49.274;8.708;2022-10-17T19:51:57;18.70;99.90
46340;DHT22;47273;49.274;8.708;2022-10-17T19:54:23;18.80;99.90
46340;DHT22;47273;49.274;8.708;2022-10-17T19:56:49;18.80;99.90
46340;DHT22;47273;49.274;8.708;2022-10-17T19:59:19;18.80;99.90
46340;DHT22;47273;49.274;8.708;2022-10-17T20:01:55;18.70;99.90
46340;DHT22;47273;49.274;8.708;2022-10-17T20:04:23;18.80;99.90
46340;DHT22;47273;49.274;8.708;2022-10-17T20:06:52;18.80;99.90
46340;DHT22;47273;49.274;8.708;2022-10-17T20:09:27;18.70;99.90
46340;DHT22;47273;49.274;8.708;2022-10-17T20:11:55;18.70;99.90
46340;DHT22;47273;49.274;8.708;2022-10-17T20:14:21;18.80;99.90
46340;DHT22;47273;49.274;8.708;2022-10-17T20:16:50;18.70;99.90
46340;DHT22;47273;49.274;8.708;2022-10-17T20:19:16;18.70;99.90
46340;DHT22;47273;49.274;8.708;2022-10-17T20:21:46;18.80;99.90
46340;DHT22;47273;49.274;8.708;2022-10-17T20:24:15;18.70;99.90
46340;DHT22;47273;49.274;8.708;2022-10-17T20:26:53;18.70;99.90
46340;DHT22;47273;49.274;8.708;2022-10-17T20:29:20;18.70;99.90
